Latest Weather Observations for Maria Island

IDT60801

Issued at 12:31 pm EST Tuesday 21 April 2015 (issued every 30 minutes, with the page automatically refreshed every 10 minutes)

About weather observations | Map of weather stations | Latest weather observations for TAS | Other Formats
Station Details ID: 092124 Name: MARIA ISLAND (POINT LESUEUR) Lat: -42.66 Lon: 148.02 Height: 28.0 m
Data from the previous 72 hours. | See also: Recent months at Maria Island
Date/Time
EST
Temp
°C
App
Temp
°C
Dew
Point
Rel
Hum
%
Delta-T
°C
Wind Press
QNH
hPa
Press
MSL
hPa
Rain
since 9 am
mm
Dir
 
Spd
km/h
Gust
km/h
Spd
kts
Gust
kts
21/12:30pm 15.7 14.1 8.7 63 3.5 SSW 7 9 4 5 1032.1 1032.1 0.0
21/12:00pm 15.8 14.8 8.8 63 3.5 SSW 4 6 2 3 1032.4 1032.4 0.0
21/11:30am 15.3 14.1 8.1 62 3.6 SW 4 6 2 3 1032.7 1032.7 0.0
21/11:00am 14.9 13.7 7.9 63 3.5 SSW 4 7 2 4 1033.0 1033.0 0.0
21/10:30am 14.5 13.2 7.5 63 3.5 SSW 4 6 2 3 1033.2 1033.2 0.0
21/10:00am 14.4 13.4 7.5 63 3.4 ESE 2 4 1 2 1033.4 1033.4 0.0
21/09:30am 14.3 13.3 7.4 63 3.4 W 2 6 1 3 1033.5 1033.5 0.0
21/09:00am 13.9 12.8 7.0 63 3.3 WSW 2 4 1 2 1033.5 1033.5 0.0
21/08:30am 13.4 11.6 7.0 65 3.1 W 6 7 3 4 1033.4 1033.4 0.0
21/08:00am 12.3 10.3 7.0 70 2.5 WNW 7 9 4 5 1033.4 1033.4 0.0
21/07:30am 12.3 8.7 6.8 69 2.6 WNW 15 17 8 9 1033.2 1033.2 0.0
21/07:00am 12.2 8.6 6.9 70 2.5 WNW 15 20 8 11 1033.1 1033.1 0.0
21/06:30am 11.9 9.0 6.6 70 2.5 NW 11 13 6 7 1033.1 1033.1 0.0
21/06:00am 11.9 8.7 6.8 71 2.4 NW 13 17 7 9 1033.1 1033.1 0.0
21/05:30am 11.8 8.1 6.5 70 2.5 WNW 15 19 8 10 1032.9 1032.9 0.0
21/05:00am 11.7 8.0 6.4 70 2.5 WNW 15 17 8 9 1032.6 1032.6 0.0
21/04:30am 11.7 7.3 6.6 71 2.4 WNW 19 22 10 12 1032.8 1032.8 0.0
21/04:00am 11.5 7.1 6.4 71 2.4 WNW 19 22 10 12 1032.6 1032.6 0.0
21/03:30am 11.3 7.6 6.2 71 2.4 NNW 15 17 8 9 1032.8 1032.8 0.0
21/03:00am 11.2 7.5 6.1 71 2.4 WNW 15 17 8 9 1033.1 1033.1 0.0
21/02:30am 11.2 6.7 6.3 72 2.3 WNW 19 20 10 11 1033.1 1033.1 0.0
21/02:00am 11.1 7.0 6.0 71 2.4 NW 17 19 9 10 1033.3 1033.3 0.0
21/01:30am 10.7 7.7 6.1 73 2.1 NW 11 13 6 7 1033.4 1033.4 0.0
21/01:00am 10.7 6.5 5.7 71 2.3 NW 17 22 9 12 1033.4 1033.4 0.0
21/12:30am 10.1 6.7 5.9 75 1.9 NW 13 17 7 9 1033.5 1033.5 0.0
21/12:00am 9.9 7.1 5.3 73 2.1 NNW 9 11 5 6 1033.7 1033.7 0.0
 
Date/Time
EST
Temp
°C
App
Temp
°C
Dew
Point
Rel
Hum
%
Delta-T
°C
Wind Press
QNH
hPa
Press
MSL
hPa
Rain
since 9 am
mm
Dir
 
Spd
km/h
Gust
km/h
Spd
kts
Gust
kts
20/11:30pm 9.8 7.6 6.2 78 1.7 NW 7 9 4 5 1033.7 1033.7 0.0
20/11:00pm 9.8 7.1 5.6 75 1.9 NW 9 13 5 7 1034.0 1034.0 0.0
20/10:30pm 10.3 7.7 5.9 74 2.0 NW 9 11 5 6 1034.0 1034.0 0.0
20/10:00pm 10.2 7.7 6.4 77 1.8 NW 9 11 5 6 1034.2 1034.2 0.0
20/09:30pm 10.9 8.0 6.5 74 2.1 NNW 11 13 6 7 1034.3 1034.3 0.0
20/09:00pm 10.9 8.1 6.8 76 1.9 NW 11 15 6 8 1034.3 1034.3 0.0
20/08:30pm 11.6 8.2 5.7 67 2.7 NNW 13 19 7 10 1034.3 1034.3 0.0
20/08:00pm 11.1 8.8 5.6 69 2.5 NW 7 9 4 5 1034.3 1034.3 0.0
20/07:30pm 11.8 8.1 6.3 69 2.6 N 15 17 8 9 1034.2 1034.2 0.0
20/07:00pm 12.4 7.8 5.6 63 3.1 N 19 22 10 12 1034.0 1034.0 0.0
20/06:30pm 11.9 8.4 5.3 64 3.0 N 13 19 7 10 1033.9 1033.9 0.0
20/06:00pm 12.2 7.4 4.7 60 3.4 N 19 20 10 11 1033.7 1033.7 0.0
20/05:30pm 12.3 7.5 4.5 59 3.6 N 19 20 10 11 1033.4 1033.4 0.0
20/05:00pm 12.6 7.8 4.6 58 3.6 N 19 22 10 12 1033.1 1033.1 0.0
20/04:30pm 13.4 10.7 3.5 51 4.5 NE 7 7 4 4 1033.2 1033.2 0.0
20/04:00pm 13.4 10.2 3.2 50 4.5 ENE 9 11 5 6 1033.3 1033.3 0.0
20/03:30pm 13.8 11.2 3.3 49 4.7 SSE 6 9 3 5 1033.6 1033.6 0.0
20/03:00pm 14.0 11.2 3.2 48 4.8 S 7 9 4 5 1033.7 1033.7 0.0
20/02:30pm 13.9 11.2 2.8 47 4.9 S 6 9 3 5 1033.7 1033.7 0.0
20/02:00pm 13.8 11.2 3.3 49 4.7 SSE 6 9 3 5 1033.8 1033.8 0.0
20/01:30pm 14.0 11.4 3.2 48 4.8 SSE 6 11 3 6 1034.1 1034.1 0.0
20/01:00pm 13.7 11.2 3.5 50 4.5 NE 6 9 3 5 1034.3 1034.3 0.0
20/12:30pm 13.7 10.5 3.2 49 4.7 N 9 11 5 6 1034.7 1034.7 0.0
20/12:00pm 13.4 10.1 2.6 48 4.7 N 9 11 5 6 1035.1 1035.1 0.0
20/11:30am 12.8 9.6 3.2 52 4.3 N 9 13 5 7 1035.5 1035.5 0.0
20/11:00am 12.8 9.3 3.7 54 4.0 N 11 13 6 7 1035.6 1035.6 0.0
20/10:30am 12.3 9.1 3.0 53 4.1 NNW 9 13 5 7 1035.7 1035.7 0.0
20/10:00am 11.5 8.7 3.0 56 3.7 WNW 7 11 4 6 1035.9 1035.9 0.0
20/09:30am 11.0 7.8 2.8 57 3.6 WNW 9 13 5 7 1036.0 1036.0 0.0
20/09:00am 10.3 6.4 3.3 62 3.0 WNW 13 15 7 8 1036.0 1036.0 0.0
20/08:30am 9.6 4.9 2.9 63 2.9 WNW 17 19 9 10 1036.0 1036.0 0.0
20/08:00am 8.5 3.7 2.7 67 2.4 WNW 17 20 9 11 1035.7 1035.7 0.0
20/07:30am 7.7 3.7 2.8 71 2.1 NW 13 15 7 8 1035.6 1035.6 0.0
20/07:00am 7.2 2.8 2.5 72 1.9 WNW 15 19 8 10 1035.3 1035.3 0.0
20/06:30am 7.4 4.5 2.5 71 2.0 NW 7 9 4 5 1035.1 1035.1 0.0
20/06:00am 7.3 4.1 2.8 73 1.9 WNW 9 11 5 6 1034.8 1034.8 0.0
20/05:30am 7.3 2.8 2.4 71 2.0 WNW 15 17 8 9 1034.6 1034.6 0.0
20/05:00am 7.3 2.5 2.6 72 1.9 WNW 17 20 9 11 1034.3 1034.3 0.0
20/04:30am 7.5 4.1 2.0 68 2.3 WNW 9 13 5 7 1034.4 1034.4 0.0
20/04:00am 7.7 3.3 2.6 70 2.1 NW 15 19 8 10 1034.1 1034.1 0.0
20/03:30am 7.6 3.5 2.1 68 2.3 WNW 13 17 7 9 1034.1 1034.1 0.0
20/03:00am 7.7 3.7 2.6 70 2.1 W 13 17 7 9 1034.2 1034.2 0.0
20/02:30am 7.7 3.6 2.4 69 2.2 W 13 17 7 9 1034.3 1034.3 0.0
20/02:00am 7.6 2.8 2.5 70 2.1 WNW 17 20 9 11 1034.3 1034.3 0.0
20/01:30am 7.7 2.9 2.6 70 2.1 W 17 20 9 11 1034.2 1034.2 0.0
20/01:00am 7.8 3.7 2.3 68 2.3 W 13 17 7 9 1034.1 1034.1 0.0
20/12:30am 7.9 3.1 2.4 68 2.3 WNW 17 19 9 10 1033.9 1033.9 0.0
20/12:00am 7.9 4.5 1.7 65 2.5 W 9 13 5 7 1033.9 1033.9 0.0
 
Date/Time
EST
Temp
°C
App
Temp
°C
Dew
Point
Rel
Hum
%
Delta-T
°C
Wind Press
QNH
hPa
Press
MSL
hPa
Rain
since 9 am
mm
Dir
 
Spd
km/h
Gust
km/h
Spd
kts
Gust
kts
19/11:30pm 8.1 3.7 2.6 68 2.3 WNW 15 19 8 10 1033.8 1033.8 0.0
19/11:00pm 8.2 4.8 1.8 64 2.6 W 9 15 5 8 1033.7 1033.7 0.0
19/10:30pm 8.2 4.1 2.2 66 2.5 WNW 13 17 7 9 1033.6 1033.6 0.0
19/10:00pm 9.4 4.2 2.3 61 3.0 WSW 19 24 10 13 1033.4 1033.4 0.0
19/09:30pm 9.6 4.1 1.8 58 3.3 SW 20 26 11 14 1033.3 1033.3 0.0
19/09:00pm 9.7 4.0 2.6 61 3.0 SW 22 28 12 15 1032.9 1032.9 0.0
19/08:30pm 9.9 4.7 2.3 59 3.2 SW 19 24 10 13 1032.4 1032.4 0.0
19/08:00pm 10.1 4.3 2.2 58 3.3 SW 22 30 12 16 1031.7 1031.7 0.0
19/07:30pm 10.3 4.9 2.7 59 3.3 SW 20 26 11 14 1031.2 1031.2 0.0
19/07:00pm 10.4 5.3 3.2 61 3.1 SW 19 24 10 13 1030.8 1030.8 0.0
19/06:30pm 10.5 5.3 2.6 58 3.4 SW 19 26 10 14 1030.2 1030.2 0.0
19/06:00pm 10.8 4.4 3.1 59 3.3 SW 26 32 14 17 1029.8 1029.8 0.0
19/05:30pm 10.9 4.5 3.0 58 3.4 SSW 26 33 14 18 1029.2 1029.2 0.0
19/05:00pm 11.3 3.9 1.8 52 4.0 SSW 30 35 16 19 1028.6 1028.6 0.0
19/04:30pm 11.4 3.5 1.1 49 4.3 SSW 32 39 17 21 1028.2 1028.2 0.0
19/04:00pm 11.4 3.4 0.5 47 4.5 SSW 32 37 17 20 1027.8 1027.8 0.0
19/03:30pm 12.0 3.9 3.0 54 4.0 SSW 35 43 19 23 1027.5 1027.5 0.0
19/03:00pm 11.8 2.1 0.3 45 4.7 SSW 41 52 22 28 1027.2 1027.2 0.0
19/02:30pm 11.8 1.7 1.7 50 4.3 SSW 44 54 24 29 1026.7 1026.7 0.0
19/02:00pm 11.5 2.2 2.8 55 3.8 SSW 41 52 22 28 1026.3 1026.3 0.0
19/01:30pm 10.1 1.6 5.1 71 2.3 SSW 39 50 21 27 1026.1 1026.1 0.0
19/01:07pm 11.0 2.3 4.0 62 3.1 SSW 39 61 21 33 1025.6 1025.6 0.0
19/01:00pm 11.9 3.8 3.4 56 3.7 SW 35 44 19 24 1025.5 1025.5 0.0
19/12:30pm 11.6 4.3 4.3 61 3.3 SW 32 37 17 20 1025.3 1025.3 0.0
19/12:00pm 10.6 2.5 3.2 60 3.2 SW 35 43 19 23 1025.3 1025.3 0.0
19/11:30am 10.2 0.8 4.6 68 2.5 SW 43 52 23 28 1025.0 1025.0 0.0
19/11:09am 10.5 1.2 4.9 68 2.5 SW 43 61 23 33 1024.4 1024.4 0.0
19/11:00am 10.6 1.6 4.3 65 2.8 SW 41 50 22 27 1024.4 1024.4 0.0
19/10:30am 10.2 0.9 4.8 69 2.4 SSW 43 52 23 28 1023.9 1023.9 0.0
19/10:00am 9.2 -2.8 4.6 73 2.0 SSW 57 67 31 36 1023.4 1023.4 0.0
19/09:30am 10.7 1.8 5.0 68 2.6 SSW 41 50 22 27 1022.9 1022.9 0.0
19/09:15am 9.6 -1.9 4.4 70 2.3 SSW 54 74 29 40 1022.6 1022.6 0.0
19/09:10am 9.6 -1.1 4.6 71 2.2 SSW 50 74 27 40 1022.3 1022.3 0.0
19/09:07am 9.9 0.3 4.3 68 2.5 SW 44 69 24 37 1022.4 1022.4 0.0
19/09:00am 9.7 0.3 4.3 69 2.4 SW 43 54 23 29 1022.4 1022.4 3.0
19/08:30am 9.6 0.7 5.0 73 2.1 SSW 41 50 22 27 1021.5 1021.5 3.0
19/08:08am 9.5 0.2 4.9 73 2.1 SW 43 59 23 32 1021.1 1021.1 3.0
19/08:00am 9.7 1.0 3.9 67 2.5 SW 39 48 21 26 1020.9 1020.9 3.0
19/07:30am 9.9 1.4 5.1 72 2.2 SSW 39 52 21 28 1020.0 1020.0 3.0
19/07:00am 9.1 -1.8 5.5 78 1.6 SSW 52 63 28 34 1018.9 1018.9 3.0
19/06:54am 9.1 -1.8 5.5 78 1.6 SSW 52 63 28 34 1018.8 1018.8 3.0
19/06:30am 9.7 0.4 5.1 73 2.1 SW 43 57 23 31 1017.9 1017.9 3.0
19/06:27am 9.5 0.9 4.5 71 2.2 SW 39 57 21 31 1017.8 1017.8 3.0
19/06:00am 8.8 2.2 5.9 82 1.3 SW 30 37 16 20 1017.5 1017.5 3.0
19/05:41am 8.9 0.3 6.5 85 1.1 SSW 41 52 22 28 1017.1 1017.1 3.0
19/05:30am 8.8 -2.6 6.6 86 1.0 SSW 56 67 30 36 1016.7 1016.7 2.8
19/05:00am 8.9 -2.6 6.3 84 1.2 SW 56 67 30 36 1015.8 1015.8 2.8
19/04:30am 9.6 -1.2 6.1 79 1.6 SW 52 65 28 35 1014.7 1014.7 2.8
19/04:00am 9.0 -0.8 7.1 88 0.9 SW 48 61 26 33 1014.2 1014.2 2.6
19/03:30am 9.4 0.8 6.5 82 1.3 SW 41 50 22 27 1013.4 1013.4 2.4
19/03:00am 10.5 0.9 6.3 75 2.0 SW 46 56 25 30 1012.8 1012.8 2.4
19/02:51am 10.7 4.3 5.3 69 2.5 SW 28 48 15 26 1012.6 1012.6 2.4
19/02:30am 10.5 5.2 4.9 68 2.5 SW 22 30 12 16 1012.2 1012.2 2.4
19/02:00am 10.5 5.1 4.6 67 2.7 W 22 32 12 17 1011.8 1011.8 2.4
19/01:30am 10.8 5.8 4.5 65 2.8 W 20 26 11 14 1011.5 1011.5 2.4
19/01:00am 10.5 5.2 4.9 68 2.5 W 22 26 12 14 1011.2 1011.2 2.4
19/12:30am 10.6 6.2 4.9 68 2.6 WNW 17 26 9 14 1010.9 1010.9 2.4
19/12:00am 10.8 6.0 4.7 66 2.8 W 19 28 10 15 1010.5 1010.5 2.4
 
Date/Time
EST
Temp
°C
App
Temp
°C
Dew
Point
Rel
Hum
%
Delta-T
°C
Wind Press
QNH
hPa
Press
MSL
hPa
Rain
since 9 am
mm
Dir
 
Spd
km/h
Gust
km/h
Spd
kts
Gust
kts
18/11:30pm 11.2 6.3 5.3 67 2.7 W 20 26 11 14 1010.0 1010.0 2.4
18/11:00pm 11.4 5.7 5.1 65 2.9 W 24 28 13 15 1009.6 1009.6 2.4
18/10:30pm 11.4 6.8 5.5 67 2.7 W 19 22 10 12 1009.6 1009.6 2.4
18/10:00pm 11.8 7.3 6.1 68 2.7 W 19 26 10 14 1009.6 1009.6 2.4
18/09:30pm 11.9 6.8 5.8 66 2.8 W 22 30 12 16 1008.9 1008.9 2.2
18/09:00pm 12.1 7.5 6.4 68 2.7 WSW 20 26 11 14 1008.2 1008.2 2.2
18/08:30pm 12.0 7.0 6.5 69 2.6 W 22 28 12 15 1007.8 1007.8 2.2
18/08:00pm 12.2 8.5 7.9 75 2.1 WNW 17 24 9 13 1007.3 1007.3 2.2
18/07:30pm 12.4 10.8 8.7 78 1.8 NNW 7 13 4 7 1006.8 1006.7 2.2
18/07:00pm 12.1 10.9 9.5 84 1.3 WSW 6 9 3 5 1006.4 1006.3 2.2
18/06:30pm 11.7 9.6 9.8 88 1.0 S 11 17 6 9 1006.2 1006.1 2.2
18/06:00pm 11.7 8.5 9.8 88 1.0 S 17 24 9 13 1005.7 1005.6 2.2
18/05:30pm 11.5 6.6 9.9 90 0.8 SSW 26 35 14 19 1005.7 1005.6 1.8
18/05:00pm 11.7 3.4 10.1 90 0.8 SSW 44 50 24 27 1004.3 1004.2 0.6
18/04:30pm 12.3 1.6 10.4 88 1.0 SSW 57 67 31 36 1003.2 1003.1 0.0
18/04:25pm 12.3 0.8 10.0 86 1.2 SSW 61 80 33 43 1003.2 1003.1 0.0
18/04:15pm 13.0 3.6 10.0 82 1.5 SW 50 78 27 42 1001.8 1001.7 0.0
18/04:11pm 13.8 7.0 9.3 74 2.3 WNW 35 67 19 36 1002.4 1002.3 0.0
18/04:09pm 15.0 8.7 9.1 68 3.0 NW 32 52 17 28 1002.8 1002.7 0.0
18/04:00pm 18.4 13.1 9.7 57 4.6 NNW 28 39 15 21 1001.5 1001.4 0.0
18/03:30pm 18.7 12.6 9.8 56 4.7 NNW 32 35 17 19 1001.1 1001.0 0.0
18/03:00pm 19.0 13.5 9.2 53 5.2 N 28 35 15 19 1000.9 1000.8 0.0
18/02:30pm 19.1 13.2 9.0 52 5.3 N 30 35 16 19 1001.3 1001.2 0.0
18/02:00pm 19.5 11.6 7.9 47 6.0 NNW 39 46 21 25 1001.1 1001.0 0.0
18/01:30pm 19.6 12.9 9.8 53 5.2 N 35 43 19 23 1001.5 1001.4 0.0
18/01:00pm 19.4 13.0 9.3 52 5.4 NNW 33 43 18 23 1002.0 1001.9 0.0

Other Formats:

Comma delimited format used in spreadsheet applications
http://www.bom.gov.au/fwo/IDT60801/IDT60801.95988.axf

JavaScript Object Notation format (JSON) in row-major order
http://www.bom.gov.au/fwo/IDT60801/IDT60801.95988.json